Nichinan Maru — JM6277 — position and weather

sailwx.info

Track history (hours):
 
Tides and Currents Weather Stations Pressure Air Temp Water Temp Dewpoint Dewpoint Depression Visibility Wind Speed Wind Dir Waves Ship Positions

Nichinan Maru

Last reported at 2018-Feb-14 09:25 UTC. Time now 2018-Feb-23 22:15 UTC.
Position N 34°26' E 134°08'.
Warning: this ship's position is 9 days out of date.

Length 67 m; draft 4.8 m.

Type: Ship (hazmat cat A). MMSI: 431500254.

Date/timePositionNaut miles runAvg speedWind from/ knotsBaromVisibWave heightAir tempDewpointWater temp
2018-Feb-14 09:25N 34°26' E 134°08'613.0
2018-Feb-14 08:57N 34°25' E 134°15'512.0
2018-Feb-14 08:30N 34°24' E 134°21'612.2
2018-Feb-14 08:00N 34°20' E 134°27'612.4
2018-Feb-14 07:30N 34°17' E 134°34'612.4
2018-Feb-14 07:00N 34°13' E 134°40'611.6
2018-Feb-14 06:30N 34°11' E 134°46'612.6
2018-Feb-14 06:00N 34°12' E 134°53'611.9
2018-Feb-14 05:30N 34°14' E 135°00'611.4
2018-Feb-14 05:01N 34°13' E 135°07'1 1.9
2018-Feb-14 04:30N 34°13' E 135°08'0 0.1
2018-Feb-14 04:00N 34°13' E 135°08'0 0.0
2018-Feb-14 03:30N 34°13' E 135°08'0 0.0
2018-Feb-14 03:00N 34°13' E 135°08'0 0.0
2018-Feb-14 02:30N 34°13' E 135°08'0 0.0
2018-Feb-14 02:00N 34°13' E 135°08'0 0.0
2018-Feb-14 01:30N 34°13' E 135°08'0 0.0
2018-Feb-14 01:00N 34°13' E 135°08'0 0.0
2018-Feb-14 00:30N 34°13' E 135°08'0 0.0
2018-Feb-14 00:00N 34°13' E 135°08'0 0.0
2018-Feb-13 23:30N 34°13' E 135°08'0 0.0
2018-Feb-13 23:00N 34°13' E 135°08'2 3.5
2018-Feb-13 22:30N 34°12' E 135°07'0 0.0
2018-Feb-13 22:00N 34°12' E 135°07'0 0.0
2018-Feb-13 21:31N 34°12' E 135°07'0 0.0
2018-Feb-13 21:00N 34°12' E 135°07'0 0.1
2018-Feb-13 20:30N 34°12' E 135°07'0 0.0
2018-Feb-13 20:00N 34°12' E 135°07'0 0.0
2018-Feb-13 19:30N 34°12' E 135°07'0 0.0
2018-Feb-13 19:00N 34°12' E 135°07'0 0.0
2018-Feb-13 18:30N 34°12' E 135°07'0 0.0
2018-Feb-13 18:00N 34°12' E 135°07'0 0.1
2018-Feb-13 17:31N 34°12' E 135°07'1 1.3
2018-Feb-13 17:00N 34°13' E 135°06'5 9.4
2018-Feb-13 16:30N 34°17' E 135°03'611.1
2018-Feb-13 16:00N 34°22' E 135°04'611.1
2018-Feb-13 15:30N 34°28' E 135°04'611.0
2018-Feb-13 15:00N 34°33' E 135°04'511.0
2018-Feb-13 14:30N 34°37' E 134°59'611.2
2018-Feb-13 14:00N 34°38' E 134°52'611.0
2018-Feb-13 13:30N 34°39' E 134°46'510.6
2018-Feb-13 13:00N 34°40' E 134°39'510.2
2018-Feb-13 12:30N 34°42' E 134°34'510.4
2018-Feb-13 11:59N 34°42' E 134°27'5 7.6
2018-Feb-13 11:20N 34°45' E 134°22'0 0.5
2018-Feb-13 11:00N 34°45' E 134°22'0 0.0
2018-Feb-13 10:30N 34°45' E 134°22'0 0.0
2018-Feb-13 10:00N 34°45' E 134°22'0 0.0
2018-Feb-13 09:30N 34°45' E 134°22'0 0.0
2018-Feb-13 08:59N 34°45' E 134°22'0 0.0
2018-Feb-13 08:30N 34°45' E 134°22'0 0.0
2018-Feb-13 08:00N 34°45' E 134°22'0 0.0
2018-Feb-13 07:29N 34°45' E 134°22'0 0.0
2018-Feb-13 07:00N 34°45' E 134°22'0 0.4
2018-Feb-13 06:30N 34°45' E 134°22'0 0.0
2018-Feb-12 03:09N 34°45' E 134°22'3 0.9
2018-Feb-11 23:23N 34°42' E 134°23'0 0.0
2018-Feb-11 22:51N 34°42' E 134°23'0 0.0
2018-Feb-11 22:07N 34°42' E 134°23'0 0.0
2018-Feb-11 21:59N 34°42' E 134°23'0 0.0
2018-Feb-11 21:29N 34°42' E 134°23'0 0.0
2018-Feb-11 18:42N 34°42' E 134°23'0 0.0
2018-Feb-11 18:22N 34°42' E 134°23'0 0.0
2018-Feb-11 18:00N 34°42' E 134°23'0 0.0
2018-Feb-11 17:05N 34°42' E 134°23'0 0.0
2018-Feb-11 16:57N 34°42' E 134°23'0 0.0
2018-Feb-11 16:29N 34°42' E 134°23'0 0.0
2018-Feb-11 15:44N 34°42' E 134°23'0 0.0
2018-Feb-11 15:18N 34°42' E 134°23'0 0.0
2018-Feb-11 15:00N 34°42' E 134°23'0 0.0
2018-Feb-11 11:48N 34°42' E 134°23'0 0.0
2018-Feb-11 11:23N 34°42' E 134°23'0 0.0
2018-Feb-11 10:56N 34°42' E 134°23'0 0.0
2018-Feb-11 10:29N 34°42' E 134°23'0 0.0
2018-Feb-11 09:57N 34°42' E 134°23'0 0.0
2018-Feb-11 09:22N 34°42' E 134°23'0 0.0
2018-Feb-11 08:58N 34°42' E 134°23'0 0.0
2018-Feb-11 08:30N 34°42' E 134°23'0 0.0
2018-Feb-11 07:57N 34°42' E 134°23'0 0.0
2018-Feb-11 07:30N 34°42' E 134°23'0 0.0
2018-Feb-11 06:18N 34°42' E 134°23'0 0.1
2018-Feb-11 05:55N 34°42' E 134°23'0 0.0
2018-Feb-11 05:24N 34°42' E 134°23'0 0.1
2018-Feb-11 05:00N 34°42' E 134°23'0 0.0
2018-Feb-11 04:29N 34°42' E 134°23'0 0.0
2018-Feb-11 04:00N 34°42' E 134°23'0 0.0
2018-Feb-11 03:20N 34°42' E 134°23'0 0.0
2018-Feb-11 02:55N 34°42' E 134°23'0 0.0
2018-Feb-11 02:30N 34°42' E 134°23'0 0.0
2018-Feb-11 02:00N 34°42' E 134°23'0 0.0
2018-Feb-11 01:30N 34°42' E 134°23'0 0.0
2018-Feb-11 00:55N 34°42' E 134°23'0 0.0
2018-Feb-11 00:28N 34°42' E 134°23'0 0.0
2018-Feb-10 23:58N 34°42' E 134°23'0 0.0
2018-Feb-10 23:26N 34°42' E 134°23'0 0.0
2018-Feb-10 23:00N 34°42' E 134°23'0 0.0
2018-Feb-10 22:30N 34°42' E 134°23'0 0.0
2018-Feb-10 22:00N 34°42' E 134°23'0 0.0
2018-Feb-10 21:27N 34°42' E 134°23'0 0.0
2018-Feb-10 20:44N 34°42' E 134°23'0 0.0
2018-Feb-10 20:30N 34°42' E 134°23'0 0.0
2018-Feb-10 19:47N 34°42' E 134°23'0 0.0
2018-Feb-10 19:13N 34°42' E 134°23'0 0.0
2018-Feb-10 18:20N 34°42' E 134°23'0 0.0
2018-Feb-10 16:37N 34°42' E 134°23'0 0.0
2018-Feb-10 15:28N 34°42' E 134°23'0 0.0
2018-Feb-10 12:41N 34°42' E 134°23'0 0.6
2018-Feb-10 12:29N 34°41' E 134°23'1411.9
2018-Feb-10 11:16N 34°32' E 134°09'7710.7
2018-Feb-10 04:03N 34°05' E 132°42'111.3
2018-Feb-10 04:00N 34°05' E 132°41'511.1
2018-Feb-10 03:31N 34°03' E 132°35'710.6
2018-Feb-10 02:50N 34°05' E 132°26'411.8
2018-Feb-10 02:30N 34°07' E 132°22'611.7
2018-Feb-10 02:00N 34°11' E 132°17'4 8.7
2018-Feb-10 01:30N 34°14' E 132°13'0 0.0
2018-Feb-10 01:00N 34°14' E 132°13'0 0.0
2018-Feb-10 00:30N 34°14' E 132°13'0 0.0
2018-Feb-10 00:00N 34°14' E 132°13'0 0.0
2018-Feb-09 23:30N 34°14' E 132°13'0 0.0
2018-Feb-09 23:00N 34°14' E 132°13'0 0.0
2018-Feb-09 22:46N 34°14' E 132°13'1 3.7
2018-Feb-09 22:30N 34°14' E 132°14'0 0.9
2018-Feb-09 22:00N 34°14' E 132°15'0 0.0
2018-Feb-09 21:30N 34°14' E 132°15'0 0.0
2018-Feb-09 21:01N 34°14' E 132°15'0 0.0
2018-Feb-09 19:30N 34°14' E 132°15'2 4.6
2018-Feb-09 19:00N 34°12' E 132°17'10 9.9
2018-Feb-09 18:00N 34°02' E 132°16'  
2018-Feb-07 09:05N 34°12' E 134°40'113.9
2018-Feb-07 09:00N 34°13' E 134°40'611.8
2018-Feb-07 08:30N 34°18' E 134°36'510.9
2018-Feb-07 08:00N 34°22' E 134°32'510.7
2018-Feb-07 07:30N 34°27' E 134°29'510.4
2018-Feb-07 07:00N 34°32' E 134°27'610.5
2018-Feb-07 06:27N 34°37' E 134°24'710.0
2018-Feb-07 05:46N 34°44' E 134°22'1 1.4
2018-Feb-07 04:50N 34°45' E 134°22'0 0.0
2018-Feb-07 04:30N 34°45' E 134°22'0 0.0
2018-Feb-07 03:54N 34°45' E 134°22'0 0.0
2018-Feb-07 03:29N 34°45' E 134°22'0 0.0
2018-Feb-07 03:00N 34°45' E 134°22'0 0.0
2018-Feb-07 02:29N 34°45' E 134°22'0 0.0
2018-Feb-07 01:15N 34°45' E 134°22'0 0.0
2018-Feb-07 00:56N 34°45' E 134°22'0 0.0
2018-Feb-07 00:26N 34°45' E 134°22'0 0.0
2018-Feb-06 23:54N 34°45' E 134°22'0 0.0
2018-Feb-06 23:29N 34°45' E 134°22'4 0.6
2018-Feb-06 17:13N 34°41' E 134°23'0 0.0
2018-Feb-06 16:56N 34°41' E 134°23'0 0.0
2018-Feb-06 15:38N 34°41' E 134°23'0 0.0
2018-Feb-06 15:30N 34°41' E 134°23'0 0.0
2018-Feb-06 13:10N 34°41' E 134°23'0 0.0
2018-Feb-06 12:54N 34°41' E 134°23'0 0.0
2018-Feb-05 17:17N 34°41' E 134°23'0 0.0
2018-Feb-05 16:54N 34°41' E 134°23'0 0.0
2018-Feb-05 15:47N 34°41' E 134°23'0 0.0
2018-Feb-05 15:17N 34°41' E 134°23'2 5.5
2018-Feb-05 15:00N 34°40' E 134°22'1311.3
2018-Feb-05 13:51N 34°33' E 134°09'7710.2
2018-Feb-05 06:17N 34°05' E 132°42'1111.2
2018-Feb-05 05:20N 34°04' E 132°29'512.2
2018-Feb-05 04:54N 34°07' E 132°23'512.2
2018-Feb-05 04:30N 34°09' E 132°19'611.9
2018-Feb-05 04:00N 34°14' E 132°14'1 1.1
2018-Feb-05 03:30N 34°14' E 132°13'0 0.0
2018-Feb-05 03:01N 34°14' E 132°13'0 0.0
2018-Feb-05 02:30N 34°14' E 132°13'0 0.0
2018-Feb-05 02:01N 34°14' E 132°13'0 0.0
2018-Feb-05 01:30N 34°14' E 132°13'0 0.7
2018-Feb-05 01:00N 34°14' E 132°14'1 2.0
2018-Feb-05 00:29N 34°14' E 132°15'0 0.0
2018-Feb-04 23:56N 34°14' E 132°15'0 0.0
2018-Feb-04 23:29N 34°14' E 132°15'0 0.0
2018-Feb-04 23:00N 34°14' E 132°15'0 0.0
2018-Feb-04 22:31N 34°14' E 132°15'0 0.0
2018-Feb-04 22:00N 34°14' E 132°15'0 0.0
2018-Feb-04 21:29N 34°14' E 132°15'0 0.0
2018-Feb-04 21:01N 34°14' E 132°15'0 0.0
2018-Feb-04 20:00N 34°14' E 132°15'0 0.0
2018-Feb-04 19:30N 34°14' E 132°15'0 0.0
2018-Feb-04 19:00N 34°14' E 132°15'0 0.0
2018-Feb-04 18:30N 34°14' E 132°15'0 0.0
2018-Feb-04 18:00N 34°14' E 132°15'0 0.0
2018-Feb-04 17:30N 34°14' E 132°15'0 0.0
2018-Feb-04 15:30N 34°14' E 132°15'0 0.0
2018-Feb-04 15:00N 34°14' E 132°15'0 0.0
2018-Feb-04 14:30N 34°14' E 132°15'0 0.0
2018-Feb-04 14:01N 34°14' E 132°15'0 0.0
2018-Feb-04 13:31N 34°14' E 132°15'0 0.2
2018-Feb-04 13:00N 34°14' E 132°15'4 8.4
2018-Feb-04 12:30N 34°10' E 132°18'5 9.5
2018-Feb-04 12:00N 34°06' E 132°19'610.9
2018-Feb-04 11:30N 34°01' E 132°15'  
Track history (hours):
 
Tides and Currents Weather Stations Pressure Air Temp Water Temp Dewpoint Dewpoint Depression Visibility Wind Speed Wind Dir Waves Ship Positions

Nichinan Maru

Last reported at 2018-Feb-14 09:25 UTC. Time now 2018-Feb-23 22:15 UTC.
Position N 34°26' E 134°08'.
Warning: this ship's position is 9 days out of date.

Length 67 m; draft 4.8 m.

Type: Ship (hazmat cat A). MMSI: 431500254.

Date/timePositionNaut miles runAvg speedWind from/ knotsBaromVisibWave heightAir tempDewpointWater temp
2018-Feb-14 09:25N 34°26' E 134°08'613.0
2018-Feb-14 08:57N 34°25' E 134°15'512.0
2018-Feb-14 08:30N 34°24' E 134°21'612.2
2018-Feb-14 08:00N 34°20' E 134°27'612.4
2018-Feb-14 07:30N 34°17' E 134°34'612.4
2018-Feb-14 07:00N 34°13' E 134°40'611.6
2018-Feb-14 06:30N 34°11' E 134°46'612.6
2018-Feb-14 06:00N 34°12' E 134°53'611.9
2018-Feb-14 05:30N 34°14' E 135°00'611.4
2018-Feb-14 05:01N 34°13' E 135°07'1 1.9
2018-Feb-14 04:30N 34°13' E 135°08'0 0.1
2018-Feb-14 04:00N 34°13' E 135°08'0 0.0
2018-Feb-14 03:30N 34°13' E 135°08'0 0.0
2018-Feb-14 03:00N 34°13' E 135°08'0 0.0
2018-Feb-14 02:30N 34°13' E 135°08'0 0.0
2018-Feb-14 02:00N 34°13' E 135°08'0 0.0
2018-Feb-14 01:30N 34°13' E 135°08'0 0.0
2018-Feb-14 01:00N 34°13' E 135°08'0 0.0
2018-Feb-14 00:30N 34°13' E 135°08'0 0.0
2018-Feb-14 00:00N 34°13' E 135°08'0 0.0
2018-Feb-13 23:30N 34°13' E 135°08'0 0.0
2018-Feb-13 23:00N 34°13' E 135°08'2 3.5
2018-Feb-13 22:30N 34°12' E 135°07'0 0.0
2018-Feb-13 22:00N 34°12' E 135°07'0 0.0
2018-Feb-13 21:31N 34°12' E 135°07'0 0.0
2018-Feb-13 21:00N 34°12' E 135°07'0 0.1
2018-Feb-13 20:30N 34°12' E 135°07'0 0.0
2018-Feb-13 20:00N 34°12' E 135°07'0 0.0
2018-Feb-13 19:30N 34°12' E 135°07'0 0.0
2018-Feb-13 19:00N 34°12' E 135°07'0 0.0
2018-Feb-13 18:30N 34°12' E 135°07'0 0.0
2018-Feb-13 18:00N 34°12' E 135°07'0 0.1
2018-Feb-13 17:31N 34°12' E 135°07'1 1.3
2018-Feb-13 17:00N 34°13' E 135°06'5 9.4
2018-Feb-13 16:30N 34°17' E 135°03'611.1
2018-Feb-13 16:00N 34°22' E 135°04'611.1
2018-Feb-13 15:30N 34°28' E 135°04'611.0
2018-Feb-13 15:00N 34°33' E 135°04'511.0
2018-Feb-13 14:30N 34°37' E 134°59'611.2
2018-Feb-13 14:00N 34°38' E 134°52'611.0
2018-Feb-13 13:30N 34°39' E 134°46'510.6
2018-Feb-13 13:00N 34°40' E 134°39'510.2
2018-Feb-13 12:30N 34°42' E 134°34'510.4
2018-Feb-13 11:59N 34°42' E 134°27'5 7.6
2018-Feb-13 11:20N 34°45' E 134°22'0 0.5
2018-Feb-13 11:00N 34°45' E 134°22'0 0.0
2018-Feb-13 10:30N 34°45' E 134°22'0 0.0
2018-Feb-13 10:00N 34°45' E 134°22'0 0.0
2018-Feb-13 09:30N 34°45' E 134°22'0 0.0
2018-Feb-13 08:59N 34°45' E 134°22'0 0.0
2018-Feb-13 08:30N 34°45' E 134°22'0 0.0
2018-Feb-13 08:00N 34°45' E 134°22'0 0.0
2018-Feb-13 07:29N 34°45' E 134°22'0 0.0
2018-Feb-13 07:00N 34°45' E 134°22'0 0.4
2018-Feb-13 06:30N 34°45' E 134°22'0 0.0
2018-Feb-12 03:09N 34°45' E 134°22'3 0.9
2018-Feb-11 23:23N 34°42' E 134°23'0 0.0
2018-Feb-11 22:51N 34°42' E 134°23'0 0.0
2018-Feb-11 22:07N 34°42' E 134°23'0 0.0
2018-Feb-11 21:59N 34°42' E 134°23'0 0.0
2018-Feb-11 21:29N 34°42' E 134°23'0 0.0
2018-Feb-11 18:42N 34°42' E 134°23'0 0.0
2018-Feb-11 18:22N 34°42' E 134°23'0 0.0
2018-Feb-11 18:00N 34°42' E 134°23'0 0.0
2018-Feb-11 17:05N 34°42' E 134°23'0 0.0
2018-Feb-11 16:57N 34°42' E 134°23'0 0.0
2018-Feb-11 16:29N 34°42' E 134°23'0 0.0
2018-Feb-11 15:44N 34°42' E 134°23'0 0.0
2018-Feb-11 15:18N 34°42' E 134°23'0 0.0
2018-Feb-11 15:00N 34°42' E 134°23'0 0.0
2018-Feb-11 11:48N 34°42' E 134°23'0 0.0
2018-Feb-11 11:23N 34°42' E 134°23'0 0.0
2018-Feb-11 10:56N 34°42' E 134°23'0 0.0
2018-Feb-11 10:29N 34°42' E 134°23'0 0.0
2018-Feb-11 09:57N 34°42' E 134°23'0 0.0
2018-Feb-11 09:22N 34°42' E 134°23'0 0.0
2018-Feb-11 08:58N 34°42' E 134°23'0 0.0
2018-Feb-11 08:30N 34°42' E 134°23'0 0.0
2018-Feb-11 07:57N 34°42' E 134°23'0 0.0
2018-Feb-11 07:30N 34°42' E 134°23'0 0.0
2018-Feb-11 06:18N 34°42' E 134°23'0 0.1
2018-Feb-11 05:55N 34°42' E 134°23'0 0.0
2018-Feb-11 05:24N 34°42' E 134°23'0 0.1
2018-Feb-11 05:00N 34°42' E 134°23'0 0.0
2018-Feb-11 04:29N 34°42' E 134°23'0 0.0
2018-Feb-11 04:00N 34°42' E 134°23'0 0.0
2018-Feb-11 03:20N 34°42' E 134°23'0 0.0
2018-Feb-11 02:55N 34°42' E 134°23'0 0.0
2018-Feb-11 02:30N 34°42' E 134°23'0 0.0
2018-Feb-11 02:00N 34°42' E 134°23'0 0.0
2018-Feb-11 01:30N 34°42' E 134°23'0 0.0
2018-Feb-11 00:55N 34°42' E 134°23'0 0.0
2018-Feb-11 00:28N 34°42' E 134°23'0 0.0
2018-Feb-10 23:58N 34°42' E 134°23'0 0.0
2018-Feb-10 23:26N 34°42' E 134°23'0 0.0
2018-Feb-10 23:00N 34°42' E 134°23'0 0.0
2018-Feb-10 22:30N 34°42' E 134°23'0 0.0
2018-Feb-10 22:00N 34°42' E 134°23'0 0.0
2018-Feb-10 21:27N 34°42' E 134°23'0 0.0
2018-Feb-10 20:44N 34°42' E 134°23'0 0.0
2018-Feb-10 20:30N 34°42' E 134°23'0 0.0
2018-Feb-10 19:47N 34°42' E 134°23'0 0.0
2018-Feb-10 19:13N 34°42' E 134°23'0 0.0
2018-Feb-10 18:20N 34°42' E 134°23'0 0.0
2018-Feb-10 16:37N 34°42' E 134°23'0 0.0
2018-Feb-10 15:28N 34°42' E 134°23'0 0.0
2018-Feb-10 12:41N 34°42' E 134°23'0 0.6
2018-Feb-10 12:29N 34°41' E 134°23'1411.9
2018-Feb-10 11:16N 34°32' E 134°09'7710.7
2018-Feb-10 04:03N 34°05' E 132°42'111.3
2018-Feb-10 04:00N 34°05' E 132°41'511.1
2018-Feb-10 03:31N 34°03' E 132°35'710.6
2018-Feb-10 02:50N 34°05' E 132°26'411.8
2018-Feb-10 02:30N 34°07' E 132°22'611.7
2018-Feb-10 02:00N 34°11' E 132°17'4 8.7
2018-Feb-10 01:30N 34°14' E 132°13'0 0.0
2018-Feb-10 01:00N 34°14' E 132°13'0 0.0
2018-Feb-10 00:30N 34°14' E 132°13'0 0.0
2018-Feb-10 00:00N 34°14' E 132°13'0 0.0
2018-Feb-09 23:30N 34°14' E 132°13'0 0.0
2018-Feb-09 23:00N 34°14' E 132°13'0 0.0
2018-Feb-09 22:46N 34°14' E 132°13'1 3.7
2018-Feb-09 22:30N 34°14' E 132°14'0 0.9
2018-Feb-09 22:00N 34°14' E 132°15'0 0.0
2018-Feb-09 21:30N 34°14' E 132°15'0 0.0
2018-Feb-09 21:01N 34°14' E 132°15'0 0.0
2018-Feb-09 19:30N 34°14' E 132°15'2 4.6
2018-Feb-09 19:00N 34°12' E 132°17'10 9.9
2018-Feb-09 18:00N 34°02' E 132°16'  
2018-Feb-07 09:05N 34°12' E 134°40'113.9
2018-Feb-07 09:00N 34°13' E 134°40'611.8
2018-Feb-07 08:30N 34°18' E 134°36'510.9
2018-Feb-07 08:00N 34°22' E 134°32'510.7
2018-Feb-07 07:30N 34°27' E 134°29'510.4
2018-Feb-07 07:00N 34°32' E 134°27'610.5
2018-Feb-07 06:27N 34°37' E 134°24'710.0
2018-Feb-07 05:46N 34°44' E 134°22'1 1.4
2018-Feb-07 04:50N 34°45' E 134°22'0 0.0
2018-Feb-07 04:30N 34°45' E 134°22'0 0.0
2018-Feb-07 03:54N 34°45' E 134°22'0 0.0
2018-Feb-07 03:29N 34°45' E 134°22'0 0.0
2018-Feb-07 03:00N 34°45' E 134°22'0 0.0
2018-Feb-07 02:29N 34°45' E 134°22'0 0.0
2018-Feb-07 01:15N 34°45' E 134°22'0 0.0
2018-Feb-07 00:56N 34°45' E 134°22'0 0.0
2018-Feb-07 00:26N 34°45' E 134°22'0 0.0
2018-Feb-06 23:54N 34°45' E 134°22'0 0.0
2018-Feb-06 23:29N 34°45' E 134°22'4 0.6
2018-Feb-06 17:13N 34°41' E 134°23'0 0.0
2018-Feb-06 16:56N 34°41' E 134°23'0 0.0
2018-Feb-06 15:38N 34°41' E 134°23'0 0.0
2018-Feb-06 15:30N 34°41' E 134°23'0 0.0
2018-Feb-06 13:10N 34°41' E 134°23'0 0.0
2018-Feb-06 12:54N 34°41' E 134°23'0 0.0
2018-Feb-05 17:17N 34°41' E 134°23'0 0.0
2018-Feb-05 16:54N 34°41' E 134°23'0 0.0
2018-Feb-05 15:47N 34°41' E 134°23'0 0.0
2018-Feb-05 15:17N 34°41' E 134°23'2 5.5
2018-Feb-05 15:00N 34°40' E 134°22'1311.3
2018-Feb-05 13:51N 34°33' E 134°09'7710.2
2018-Feb-05 06:17N 34°05' E 132°42'1111.2
2018-Feb-05 05:20N 34°04' E 132°29'512.2
2018-Feb-05 04:54N 34°07' E 132°23'512.2
2018-Feb-05 04:30N 34°09' E 132°19'611.9
2018-Feb-05 04:00N 34°14' E 132°14'1 1.1
2018-Feb-05 03:30N 34°14' E 132°13'0 0.0
2018-Feb-05 03:01N 34°14' E 132°13'0 0.0
2018-Feb-05 02:30N 34°14' E 132°13'0 0.0
2018-Feb-05 02:01N 34°14' E 132°13'0 0.0
2018-Feb-05 01:30N 34°14' E 132°13'0 0.7
2018-Feb-05 01:00N 34°14' E 132°14'1 2.0
2018-Feb-05 00:29N 34°14' E 132°15'0 0.0
2018-Feb-04 23:56N 34°14' E 132°15'0 0.0
2018-Feb-04 23:29N 34°14' E 132°15'0 0.0
2018-Feb-04 23:00N 34°14' E 132°15'0 0.0
2018-Feb-04 22:31N 34°14' E 132°15'0 0.0
2018-Feb-04 22:00N 34°14' E 132°15'0 0.0
2018-Feb-04 21:29N 34°14' E 132°15'0 0.0
2018-Feb-04 21:01N 34°14' E 132°15'0 0.0
2018-Feb-04 20:00N 34°14' E 132°15'0 0.0
2018-Feb-04 19:30N 34°14' E 132°15'0 0.0
2018-Feb-04 19:00N 34°14' E 132°15'0 0.0
2018-Feb-04 18:30N 34°14' E 132°15'0 0.0
2018-Feb-04 18:00N 34°14' E 132°15'0 0.0
2018-Feb-04 17:30N 34°14' E 132°15'0 0.0
2018-Feb-04 15:30N 34°14' E 132°15'0 0.0
2018-Feb-04 15:00N 34°14' E 132°15'0 0.0
2018-Feb-04 14:30N 34°14' E 132°15'0 0.0
2018-Feb-04 14:01N 34°14' E 132°15'0 0.0
2018-Feb-04 13:31N 34°14' E 132°15'0 0.2
2018-Feb-04 13:00N 34°14' E 132°15'4 8.4
2018-Feb-04 12:30N 34°10' E 132°18'5 9.5
2018-Feb-04 12:00N 34°06' E 132°19'610.9
2018-Feb-04 11:30N 34°01' E 132°15'  

Dump ship's entire track history